sensor_id;sensor_type;location;lat;lon;timestamp;P1;durP1;ratioP1;P2;durP2;ratioP2
24373;SDS011;12498;50.880;12.096;2023-07-28T00:00:36;7.22;;;2.28;;
24373;SDS011;12498;50.880;12.096;2023-07-28T00:03:02;5.15;;;1.90;;
24373;SDS011;12498;50.880;12.096;2023-07-28T00:05:28;7.90;;;2.28;;
24373;SDS011;12498;50.880;12.096;2023-07-28T00:07:53;8.25;;;2.70;;
24373;SDS011;12498;50.880;12.096;2023-07-28T00:10:19;7.25;;;2.20;;
24373;SDS011;12498;50.880;12.096;2023-07-28T00:12:45;9.63;;;2.70;;
24373;SDS011;12498;50.880;12.096;2023-07-28T00:15:10;6.90;;;2.45;;
24373;SDS011;12498;50.880;12.096;2023-07-28T00:17:36;3.92;;;1.92;;
24373;SDS011;12498;50.880;12.096;2023-07-28T00:20:01;12.30;;;3.22;;
24373;SDS011;12498;50.880;12.096;2023-07-28T00:22:28;7.88;;;2.30;;
24373;SDS011;12498;50.880;12.096;2023-07-28T00:24:53;7.30;;;2.30;;
24373;SDS011;12498;50.880;12.096;2023-07-28T00:27:19;4.82;;;1.70;;
24373;SDS011;12498;50.880;12.096;2023-07-28T00:29:44;5.35;;;1.70;;
24373;SDS011;12498;50.880;12.096;2023-07-28T00:32:11;5.22;;;2.03;;
24373;SDS011;12498;50.880;12.096;2023-07-28T00:34:37;9.13;;;2.22;;
24373;SDS011;12498;50.880;12.096;2023-07-28T00:37:03;4.93;;;2.25;;
24373;SDS011;12498;50.880;12.096;2023-07-28T00:39:28;4.95;;;1.73;;
24373;SDS011;12498;50.880;12.096;2023-07-28T00:41:54;5.43;;;2.03;;
24373;SDS011;12498;50.880;12.096;2023-07-28T00:44:20;7.75;;;2.10;;
24373;SDS011;12498;50.880;12.096;2023-07-28T00:46:46;5.38;;;1.70;;
24373;SDS011;12498;50.880;12.096;2023-07-28T00:49:12;7.30;;;1.90;;
24373;SDS011;12498;50.880;12.096;2023-07-28T00:51:37;6.18;;;1.75;;
24373;SDS011;12498;50.880;12.096;2023-07-28T00:54:04;6.60;;;2.00;;
24373;SDS011;12498;50.880;12.096;2023-07-28T00:56:30;4.75;;;1.80;;
24373;SDS011;12498;50.880;12.096;2023-07-28T00:58:57;6.28;;;1.80;;
24373;SDS011;12498;50.880;12.096;2023-07-28T01:01:22;4.57;;;1.80;;
24373;SDS011;12498;50.880;12.096;2023-07-28T01:03:48;4.38;;;1.80;;
24373;SDS011;12498;50.880;12.096;2023-07-28T01:06:20;5.45;;;2.10;;
24373;SDS011;12498;50.880;12.096;2023-07-28T01:09:09;4.68;;;1.50;;
24373;SDS011;12498;50.880;12.096;2023-07-28T01:11:52;4.10;;;2.20;;
24373;SDS011;12498;50.880;12.096;2023-07-28T01:16:44;4.70;;;1.83;;
24373;SDS011;12498;50.880;12.096;2023-07-28T01:19:09;4.28;;;1.60;;
24373;SDS011;12498;50.880;12.096;2023-07-28T01:21:37;4.88;;;1.70;;
24373;SDS011;12498;50.880;12.096;2023-07-28T01:27:03;3.47;;;1.83;;
24373;SDS011;12498;50.880;12.096;2023-07-28T01:29:29;4.82;;;1.92;;
24373;SDS011;12498;50.880;12.096;2023-07-28T01:31:58;5.20;;;1.75;;
24373;SDS011;12498;50.880;12.096;2023-07-28T01:34:24;6.32;;;2.35;;
24373;SDS011;12498;50.880;12.096;2023-07-28T01:36:50;5.70;;;2.03;;
24373;SDS011;12498;50.880;12.096;2023-07-28T01:39:15;4.38;;;1.95;;
24373;SDS011;12498;50.880;12.096;2023-07-28T01:41:41;4.43;;;1.92;;
24373;SDS011;12498;50.880;12.096;2023-07-28T01:44:09;6.03;;;1.95;;
24373;SDS011;12498;50.880;12.096;2023-07-28T01:46:35;8.23;;;2.60;;
24373;SDS011;12498;50.880;12.096;2023-07-28T01:49:01;7.18;;;2.15;;
24373;SDS011;12498;50.880;12.096;2023-07-28T01:51:26;9.85;;;2.30;;
24373;SDS011;12498;50.880;12.096;2023-07-28T01:53:52;8.40;;;2.25;;
24373;SDS011;12498;50.880;12.096;2023-07-28T01:56:18;6.25;;;2.08;;
24373;SDS011;12498;50.880;12.096;2023-07-28T01:58:43;6.72;;;2.00;;
24373;SDS011;12498;50.880;12.096;2023-07-28T02:01:09;3.13;;;1.50;;
24373;SDS011;12498;50.880;12.096;2023-07-28T02:03:37;6.88;;;2.83;;
24373;SDS011;12498;50.880;12.096;2023-07-28T02:06:03;5.00;;;1.90;;
24373;SDS011;12498;50.880;12.096;2023-07-28T02:08:28;5.70;;;1.80;;
24373;SDS011;12498;50.880;12.096;2023-07-28T02:10:54;4.55;;;1.80;;
24373;SDS011;12498;50.880;12.096;2023-07-28T02:13:20;5.07;;;1.60;;
24373;SDS011;12498;50.880;12.096;2023-07-28T02:15:46;6.10;;;1.80;;
24373;SDS011;12498;50.880;12.096;2023-07-28T02:18:11;5.43;;;1.80;;
24373;SDS011;12498;50.880;12.096;2023-07-28T02:20:37;7.88;;;2.35;;
24373;SDS011;12498;50.880;12.096;2023-07-28T02:23:04;3.55;;;1.48;;
24373;SDS011;12498;50.880;12.096;2023-07-28T02:25:30;7.07;;;1.63;;
24373;SDS011;12498;50.880;12.096;2023-07-28T02:27:55;5.00;;;1.80;;
24373;SDS011;12498;50.880;12.096;2023-07-28T02:30:21;4.10;;;1.70;;
24373;SDS011;12498;50.880;12.096;2023-07-28T02:32:47;5.00;;;2.00;;
24373;SDS011;12498;50.880;12.096;2023-07-28T02:35:12;5.97;;;1.90;;
24373;SDS011;12498;50.880;12.096;2023-07-28T02:37:38;5.05;;;1.98;;
24373;SDS011;12498;50.880;12.096;2023-07-28T02:40:04;10.02;;;2.45;;
24373;SDS011;12498;50.880;12.096;2023-07-28T02:42:30;5.78;;;2.20;;
24373;SDS011;12498;50.880;12.096;2023-07-28T02:44:58;4.68;;;2.13;;
24373;SDS011;12498;50.880;12.096;2023-07-28T02:47:24;7.80;;;2.15;;
24373;SDS011;12498;50.880;12.096;2023-07-28T02:49:50;5.68;;;1.80;;
24373;SDS011;12498;50.880;12.096;2023-07-28T02:52:16;3.53;;;1.70;;
24373;SDS011;12498;50.880;12.096;2023-07-28T02:54:41;3.50;;;1.45;;
24373;SDS011;12498;50.880;12.096;2023-07-28T02:57:07;4.13;;;1.70;;
24373;SDS011;12498;50.880;12.096;2023-07-28T02:59:33;4.10;;;1.63;;
24373;SDS011;12498;50.880;12.096;2023-07-28T03:01:58;4.78;;;2.00;;
24373;SDS011;12498;50.880;12.096;2023-07-28T03:04:24;5.47;;;2.30;;
24373;SDS011;12498;50.880;12.096;2023-07-28T03:06:50;4.30;;;1.83;;
24373;SDS011;12498;50.880;12.096;2023-07-28T03:09:16;6.10;;;1.73;;
24373;SDS011;12498;50.880;12.096;2023-07-28T03:11:42;7.15;;;1.75;;
24373;SDS011;12498;50.880;12.096;2023-07-28T03:14:08;6.90;;;1.80;;
24373;SDS011;12498;50.880;12.096;2023-07-28T03:16:34;6.05;;;2.00;;
24373;SDS011;12498;50.880;12.096;2023-07-28T03:19:00;5.93;;;1.90;;
24373;SDS011;12498;50.880;12.096;2023-07-28T03:21:25;4.57;;;1.67;;
24373;SDS011;12498;50.880;12.096;2023-07-28T03:23:54;5.32;;;1.55;;
24373;SDS011;12498;50.880;12.096;2023-07-28T03:26:20;4.82;;;1.90;;
24373;SDS011;12498;50.880;12.096;2023-07-28T03:28:45;3.05;;;1.90;;
24373;SDS011;12498;50.880;12.096;2023-07-28T03:31:11;6.97;;;2.60;;
24373;SDS011;12498;50.880;12.096;2023-07-28T03:33:37;3.53;;;1.70;;
24373;SDS011;12498;50.880;12.096;2023-07-28T03:36:02;6.13;;;1.50;;
24373;SDS011;12498;50.880;12.096;2023-07-28T03:38:28;6.18;;;2.00;;
24373;SDS011;12498;50.880;12.096;2023-07-28T03:40:54;3.42;;;1.55;;
24373;SDS011;12498;50.880;12.096;2023-07-28T03:43:20;5.25;;;1.88;;
24373;SDS011;12498;50.880;12.096;2023-07-28T03:45:46;5.20;;;1.70;;
24373;SDS011;12498;50.880;12.096;2023-07-28T03:48:11;2.25;;;1.63;;
24373;SDS011;12498;50.880;12.096;2023-07-28T03:50:37;3.53;;;1.58;;
24373;SDS011;12498;50.880;12.096;2023-07-28T03:53:03;3.58;;;1.60;;
24373;SDS011;12498;50.880;12.096;2023-07-28T03:55:28;3.67;;;1.70;;
24373;SDS011;12498;50.880;12.096;2023-07-28T03:57:54;3.03;;;1.80;;
24373;SDS011;12498;50.880;12.096;2023-07-28T04:00:19;3.55;;;2.25;;
24373;SDS011;12498;50.880;12.096;2023-07-28T04:02:45;4.10;;;1.60;;
24373;SDS011;12498;50.880;12.096;2023-07-28T04:05:11;6.18;;;2.58;;
24373;SDS011;12498;50.880;12.096;2023-07-28T04:07:37;4.00;;;1.90;;
24373;SDS011;12498;50.880;12.096;2023-07-28T04:10:03;8.77;;;4.40;;
24373;SDS011;12498;50.880;12.096;2023-07-28T04:12:30;7.97;;;4.60;;
24373;SDS011;12498;50.880;12.096;2023-07-28T04:14:55;4.32;;;2.30;;
24373;SDS011;12498;50.880;12.096;2023-07-28T04:17:21;3.95;;;1.88;;
24373;SDS011;12498;50.880;12.096;2023-07-28T04:19:47;4.22;;;1.90;;
24373;SDS011;12498;50.880;12.096;2023-07-28T04:22:13;8.93;;;2.80;;
24373;SDS011;12498;50.880;12.096;2023-07-28T04:24:41;9.07;;;2.90;;
24373;SDS011;12498;50.880;12.096;2023-07-28T04:27:06;3.58;;;2.10;;
24373;SDS011;12498;50.880;12.096;2023-07-28T04:29:32;8.52;;;2.55;;
24373;SDS011;12498;50.880;12.096;2023-07-28T04:31:58;9.05;;;2.50;;
24373;SDS011;12498;50.880;12.096;2023-07-28T04:34:23;6.80;;;2.47;;
24373;SDS011;12498;50.880;12.096;2023-07-28T04:36:49;6.55;;;2.55;;
24373;SDS011;12498;50.880;12.096;2023-07-28T04:39:15;4.13;;;2.20;;
24373;SDS011;12498;50.880;12.096;2023-07-28T04:41:40;4.88;;;2.50;;
24373;SDS011;12498;50.880;12.096;2023-07-28T04:44:06;4.68;;;2.40;;
24373;SDS011;12498;50.880;12.096;2023-07-28T04:46:32;6.05;;;2.55;;
24373;SDS011;12498;50.880;12.096;2023-07-28T04:48:57;6.50;;;2.42;;
24373;SDS011;12498;50.880;12.096;2023-07-28T04:51:23;5.97;;;2.35;;
24373;SDS011;12498;50.880;12.096;2023-07-28T04:53:49;20.55;;;9.40;;
24373;SDS011;12498;50.880;12.096;2023-07-28T04:56:14;154.80;;;72.95;;
24373;SDS011;12498;50.880;12.096;2023-07-28T04:58:40;37.85;;;18.15;;
24373;SDS011;12498;50.880;12.096;2023-07-28T05:01:05;79.97;;;37.90;;
24373;SDS011;12498;50.880;12.096;2023-07-28T05:03:34;109.40;;;55.35;;
24373;SDS011;12498;50.880;12.096;2023-07-28T05:06:00;69.30;;;35.33;;
24373;SDS011;12498;50.880;12.096;2023-07-28T05:08:26;72.80;;;36.75;;
24373;SDS011;12498;50.880;12.096;2023-07-28T05:10:51;122.00;;;60.97;;
24373;SDS011;12498;50.880;12.096;2023-07-28T05:13:17;90.75;;;45.25;;
24373;SDS011;12498;50.880;12.096;2023-07-28T05:15:42;34.67;;;20.05;;
24373;SDS011;12498;50.880;12.096;2023-07-28T05:18:09;55.72;;;28.25;;
24373;SDS011;12498;50.880;12.096;2023-07-28T05:20:35;98.85;;;50.22;;
24373;SDS011;12498;50.880;12.096;2023-07-28T05:23:00;71.60;;;36.92;;
24373;SDS011;12498;50.880;12.096;2023-07-28T05:25:26;43.83;;;22.48;;
24373;SDS011;12498;50.880;12.096;2023-07-28T05:27:52;90.78;;;42.70;;
24373;SDS011;12498;50.880;12.096;2023-07-28T05:30:18;165.75;;;76.47;;
24373;SDS011;12498;50.880;12.096;2023-07-28T05:32:43;41.80;;;21.38;;
24373;SDS011;12498;50.880;12.096;2023-07-28T05:35:11;103.13;;;48.10;;
24373;SDS011;12498;50.880;12.096;2023-07-28T05:37:36;27.05;;;14.23;;
24373;SDS011;12498;50.880;12.096;2023-07-28T05:40:02;47.05;;;22.83;;
24373;SDS011;12498;50.880;12.096;2023-07-28T05:42:28;68.30;;;33.65;;
24373;SDS011;12498;50.880;12.096;2023-07-28T05:44:54;82.30;;;39.55;;
24373;SDS011;12498;50.880;12.096;2023-07-28T05:47:20;62.08;;;30.42;;
24373;SDS011;12498;50.880;12.096;2023-07-28T05:49:46;51.60;;;23.88;;
24373;SDS011;12498;50.880;12.096;2023-07-28T05:52:11;117.45;;;58.70;;
24373;SDS011;12498;50.880;12.096;2023-07-28T05:54:37;59.97;;;28.48;;
24373;SDS011;12498;50.880;12.096;2023-07-28T05:57:03;66.50;;;33.63;;
24373;SDS011;12498;50.880;12.096;2023-07-28T05:59:29;49.90;;;24.20;;
24373;SDS011;12498;50.880;12.096;2023-07-28T06:01:55;44.13;;;21.45;;
24373;SDS011;12498;50.880;12.096;2023-07-28T06:04:20;125.15;;;61.20;;
24373;SDS011;12498;50.880;12.096;2023-07-28T06:06:46;50.00;;;26.35;;
24373;SDS011;12498;50.880;12.096;2023-07-28T06:09:12;31.52;;;16.08;;
24373;SDS011;12498;50.880;12.096;2023-07-28T06:11:38;119.18;;;57.30;;
24373;SDS011;12498;50.880;12.096;2023-07-28T06:14:04;75.50;;;36.47;;
24373;SDS011;12498;50.880;12.096;2023-07-28T06:16:29;40.75;;;20.90;;
24373;SDS011;12498;50.880;12.096;2023-07-28T06:18:57;155.60;;;75.22;;
24373;SDS011;12498;50.880;12.096;2023-07-28T06:21:22;288.58;;;136.75;;
24373;SDS011;12498;50.880;12.096;2023-07-28T06:23:48;34.60;;;16.55;;
24373;SDS011;12498;50.880;12.096;2023-07-28T06:26:15;137.93;;;64.45;;
24373;SDS011;12498;50.880;12.096;2023-07-28T06:28:41;123.32;;;58.25;;
24373;SDS011;12498;50.880;12.096;2023-07-28T06:31:06;135.15;;;62.38;;
24373;SDS011;12498;50.880;12.096;2023-07-28T06:33:33;67.68;;;32.50;;
24373;SDS011;12498;50.880;12.096;2023-07-28T06:35:59;30.65;;;14.27;;
24373;SDS011;12498;50.880;12.096;2023-07-28T06:38:24;42.72;;;21.23;;
24373;SDS011;12498;50.880;12.096;2023-07-28T06:40:50;139.98;;;65.38;;
24373;SDS011;12498;50.880;12.096;2023-07-28T06:43:16;113.95;;;52.90;;
24373;SDS011;12498;50.880;12.096;2023-07-28T06:45:43;97.07;;;44.72;;
24373;SDS011;12498;50.880;12.096;2023-07-28T06:48:08;47.70;;;23.92;;
24373;SDS011;12498;50.880;12.096;2023-07-28T06:50:34;28.27;;;12.57;;
24373;SDS011;12498;50.880;12.096;2023-07-28T06:53:00;76.90;;;36.63;;
24373;SDS011;12498;50.880;12.096;2023-07-28T06:55:27;37.00;;;17.63;;
24373;SDS011;12498;50.880;12.096;2023-07-28T06:57:53;68.22;;;31.70;;
24373;SDS011;12498;50.880;12.096;2023-07-28T07:00:19;23.85;;;11.70;;
24373;SDS011;12498;50.880;12.096;2023-07-28T07:02:44;47.03;;;23.30;;
24373;SDS011;12498;50.880;12.096;2023-07-28T07:05:10;24.63;;;11.50;;
24373;SDS011;12498;50.880;12.096;2023-07-28T07:07:36;30.05;;;14.57;;
24373;SDS011;12498;50.880;12.096;2023-07-28T07:10:03;35.20;;;17.05;;
24373;SDS011;12498;50.880;12.096;2023-07-28T07:12:31;9.18;;;4.75;;
24373;SDS011;12498;50.880;12.096;2023-07-28T07:14:57;46.78;;;23.02;;
24373;SDS011;12498;50.880;12.096;2023-07-28T07:17:23;58.72;;;29.25;;
24373;SDS011;12498;50.880;12.096;2023-07-28T07:19:49;34.55;;;17.27;;
24373;SDS011;12498;50.880;12.096;2023-07-28T07:22:15;46.38;;;21.30;;
24373;SDS011;12498;50.880;12.096;2023-07-28T07:24:40;23.20;;;11.68;;
24373;SDS011;12498;50.880;12.096;2023-07-28T07:27:07;15.73;;;8.32;;
24373;SDS011;12498;50.880;12.096;2023-07-28T07:29:36;36.90;;;17.05;;
24373;SDS011;12498;50.880;12.096;2023-07-28T07:32:03;23.23;;;9.73;;
24373;SDS011;12498;50.880;12.096;2023-07-28T07:34:29;55.95;;;27.55;;
24373;SDS011;12498;50.880;12.096;2023-07-28T07:36:55;27.05;;;14.95;;
24373;SDS011;12498;50.880;12.096;2023-07-28T07:39:22;50.65;;;24.73;;
24373;SDS011;12498;50.880;12.096;2023-07-28T07:41:47;50.08;;;26.65;;
24373;SDS011;12498;50.880;12.096;2023-07-28T07:44:13;19.38;;;10.15;;
24373;SDS011;12498;50.880;12.096;2023-07-28T07:46:38;23.35;;;12.20;;
24373;SDS011;12498;50.880;12.096;2023-07-28T07:49:04;27.98;;;13.15;;
24373;SDS011;12498;50.880;12.096;2023-07-28T07:51:30;29.50;;;14.40;;
24373;SDS011;12498;50.880;12.096;2023-07-28T07:53:58;2.35;;;1.50;;
24373;SDS011;12498;50.880;12.096;2023-07-28T07:56:24;3.72;;;1.83;;
24373;SDS011;12498;50.880;12.096;2023-07-28T07:58:49;3.65;;;1.00;;
24373;SDS011;12498;50.880;12.096;2023-07-28T08:01:15;3.88;;;1.52;;
24373;SDS011;12498;50.880;12.096;2023-07-28T08:03:40;4.22;;;1.42;;
24373;SDS011;12498;50.880;12.096;2023-07-28T08:06:06;3.30;;;1.52;;
24373;SDS011;12498;50.880;12.096;2023-07-28T08:08:33;4.15;;;1.00;;
24373;SDS011;12498;50.880;12.096;2023-07-28T08:10:58;8.05;;;1.20;;
24373;SDS011;12498;50.880;12.096;2023-07-28T08:13:25;0.93;;;0.70;;
24373;SDS011;12498;50.880;12.096;2023-07-28T08:15:51;2.60;;;1.00;;
24373;SDS011;12498;50.880;12.096;2023-07-28T08:18:16;2.20;;;0.80;;
24373;SDS011;12498;50.880;12.096;2023-07-28T08:20:42;1.40;;;0.90;;
24373;SDS011;12498;50.880;12.096;2023-07-28T08:23:08;3.70;;;1.10;;
24373;SDS011;12498;50.880;12.096;2023-07-28T08:25:33;1.02;;;0.60;;
24373;SDS011;12498;50.880;12.096;2023-07-28T08:28:00;0.77;;;0.65;;
24373;SDS011;12498;50.880;12.096;2023-07-28T08:30:26;2.22;;;0.40;;
24373;SDS011;12498;50.880;12.096;2023-07-28T08:32:52;1.13;;;0.65;;
24373;SDS011;12498;50.880;12.096;2023-07-28T08:35:17;1.33;;;0.70;;
24373;SDS011;12498;50.880;12.096;2023-07-28T08:37:43;2.55;;;0.70;;
24373;SDS011;12498;50.880;12.096;2023-07-28T08:40:09;1.08;;;0.60;;
24373;SDS011;12498;50.880;12.096;2023-07-28T08:42:37;0.80;;;0.60;;
24373;SDS011;12498;50.880;12.096;2023-07-28T08:45:04;1.23;;;0.63;;
24373;SDS011;12498;50.880;12.096;2023-07-28T08:47:32;2.45;;;0.60;;
24373;SDS011;12498;50.880;12.096;2023-07-28T08:49:58;2.22;;;1.00;;
24373;SDS011;12498;50.880;12.096;2023-07-28T08:52:24;4.45;;;0.70;;
24373;SDS011;12498;50.880;12.096;2023-07-28T08:54:50;1.20;;;0.50;;
24373;SDS011;12498;50.880;12.096;2023-07-28T08:57:16;3.08;;;0.70;;
24373;SDS011;12498;50.880;12.096;2023-07-28T08:59:44;2.17;;;0.70;;
24373;SDS011;12498;50.880;12.096;2023-07-28T09:02:13;1.27;;;0.70;;
24373;SDS011;12498;50.880;12.096;2023-07-28T09:04:47;2.25;;;0.60;;
24373;SDS011;12498;50.880;12.096;2023-07-28T09:07:13;1.23;;;0.50;;
24373;SDS011;12498;50.880;12.096;2023-07-28T09:09:40;2.53;;;0.82;;
24373;SDS011;12498;50.880;12.096;2023-07-28T09:12:06;2.10;;;0.80;;
24373;SDS011;12498;50.880;12.096;2023-07-28T09:14:34;2.03;;;0.60;;
24373;SDS011;12498;50.880;12.096;2023-07-28T09:17:05;3.03;;;0.80;;
24373;SDS011;12498;50.880;12.096;2023-07-28T09:19:48;1.70;;;0.90;;
24373;SDS011;12498;50.880;12.096;2023-07-28T09:22:21;2.30;;;0.90;;
24373;SDS011;12498;50.880;12.096;2023-07-28T09:24:48;1.42;;;0.60;;
24373;SDS011;12498;50.880;12.096;2023-07-28T09:27:21;4.32;;;1.15;;
24373;SDS011;12498;50.880;12.096;2023-07-28T09:29:48;2.83;;;1.00;;
24373;SDS011;12498;50.880;12.096;2023-07-28T09:32:15;11.65;;;1.73;;
24373;SDS011;12498;50.880;12.096;2023-07-28T09:34:41;8.98;;;1.70;;
24373;SDS011;12498;50.880;12.096;2023-07-28T09:37:09;3.63;;;0.95;;
24373;SDS011;12498;50.880;12.096;2023-07-28T09:39:36;1.70;;;0.80;;
24373;SDS011;12498;50.880;12.096;2023-07-28T09:42:02;4.57;;;1.13;;
24373;SDS011;12498;50.880;12.096;2023-07-28T09:44:32;3.38;;;0.80;;
24373;SDS011;12498;50.880;12.096;2023-07-28T09:46:58;1.88;;;0.80;;
24373;SDS011;12498;50.880;12.096;2023-07-28T09:49:28;1.80;;;0.90;;
24373;SDS011;12498;50.880;12.096;2023-07-28T09:51:58;2.78;;;1.23;;
24373;SDS011;12498;50.880;12.096;2023-07-28T09:54:41;2.13;;;1.10;;
24373;SDS011;12498;50.880;12.096;2023-07-28T09:57:16;1.42;;;1.00;;
24373;SDS011;12498;50.880;12.096;2023-07-28T09:59:46;4.00;;;1.45;;
24373;SDS011;12498;50.880;12.096;2023-07-28T10:02:13;1.95;;;1.10;;
24373;SDS011;12498;50.880;12.096;2023-07-28T10:04:39;1.35;;;1.05;;
24373;SDS011;12498;50.880;12.096;2023-07-28T10:07:07;1.50;;;1.00;;
24373;SDS011;12498;50.880;12.096;2023-07-28T10:09:34;2.13;;;1.00;;
24373;SDS011;12498;50.880;12.096;2023-07-28T10:12:02;1.38;;;0.90;;
24373;SDS011;12498;50.880;12.096;2023-07-28T10:14:29;1.20;;;1.00;;
24373;SDS011;12498;50.880;12.096;2023-07-28T10:16:57;2.72;;;0.90;;
24373;SDS011;12498;50.880;12.096;2023-07-28T10:19:26;1.02;;;0.80;;
24373;SDS011;12498;50.880;12.096;2023-07-28T10:22:02;1.42;;;0.90;;
24373;SDS011;12498;50.880;12.096;2023-07-28T10:30:10;1.00;;;0.70;;
24373;SDS011;12498;50.880;12.096;2023-07-28T10:32:41;1.88;;;0.60;;
24373;SDS011;12498;50.880;12.096;2023-07-28T10:37:48;2.83;;;0.70;;
24373;SDS011;12498;50.880;12.096;2023-07-28T10:40:27;1.45;;;0.70;;
24373;SDS011;12498;50.880;12.096;2023-07-28T10:45:19;3.38;;;1.20;;
24373;SDS011;12498;50.880;12.096;2023-07-28T10:47:45;1.40;;;0.90;;
24373;SDS011;12498;50.880;12.096;2023-07-28T10:50:12;4.05;;;0.88;;
24373;SDS011;12498;50.880;12.096;2023-07-28T10:55:14;1.45;;;0.70;;
24373;SDS011;12498;50.880;12.096;2023-07-28T10:57:41;1.48;;;0.70;;
24373;SDS011;12498;50.880;12.096;2023-07-28T11:00:08;0.93;;;0.80;;
24373;SDS011;12498;50.880;12.096;2023-07-28T11:02:37;1.52;;;0.80;;
24373;SDS011;12498;50.880;12.096;2023-07-28T11:05:10;0.82;;;0.70;;
24373;SDS011;12498;50.880;12.096;2023-07-28T11:07:40;3.20;;;1.30;;
24373;SDS011;12498;50.880;12.096;2023-07-28T11:10:09;1.45;;;0.73;;
24373;SDS011;12498;50.880;12.096;2023-07-28T11:12:37;1.85;;;1.10;;
24373;SDS011;12498;50.880;12.096;2023-07-28T11:15:06;2.65;;;1.00;;
24373;SDS011;12498;50.880;12.096;2023-07-28T11:17:36;6.35;;;1.13;;
24373;SDS011;12498;50.880;12.096;2023-07-28T11:20:14;1.58;;;1.25;;
24373;SDS011;12498;50.880;12.096;2023-07-28T11:22:41;0.85;;;0.50;;
24373;SDS011;12498;50.880;12.096;2023-07-28T11:25:08;0.77;;;0.57;;
24373;SDS011;12498;50.880;12.096;2023-07-28T11:27:37;1.00;;;0.70;;
24373;SDS011;12498;50.880;12.096;2023-07-28T11:30:03;2.33;;;0.60;;
24373;SDS011;12498;50.880;12.096;2023-07-28T11:32:30;3.15;;;0.75;;
24373;SDS011;12498;50.880;12.096;2023-07-28T11:35:06;0.98;;;0.70;;
24373;SDS011;12498;50.880;12.096;2023-07-28T11:37:34;1.00;;;0.75;;
24373;SDS011;12498;50.880;12.096;2023-07-28T11:40:01;1.45;;;0.70;;
24373;SDS011;12498;50.880;12.096;2023-07-28T11:42:31;1.73;;;0.60;;
24373;SDS011;12498;50.880;12.096;2023-07-28T11:45:05;1.42;;;0.70;;
24373;SDS011;12498;50.880;12.096;2023-07-28T11:47:31;2.50;;;0.60;;
24373;SDS011;12498;50.880;12.096;2023-07-28T11:49:57;1.33;;;0.70;;
24373;SDS011;12498;50.880;12.096;2023-07-28T11:52:24;0.80;;;0.57;;
24373;SDS011;12498;50.880;12.096;2023-07-28T11:54:57;1.55;;;0.70;;
24373;SDS011;12498;50.880;12.096;2023-07-28T11:57:25;1.25;;;0.60;;
24373;SDS011;12498;50.880;12.096;2023-07-28T11:59:53;0.60;;;0.50;;
24373;SDS011;12498;50.880;12.096;2023-07-28T12:02:29;0.80;;;0.50;;
24373;SDS011;12498;50.880;12.096;2023-07-28T12:04:56;0.90;;;0.43;;
24373;SDS011;12498;50.880;12.096;2023-07-28T12:07:32;1.42;;;0.65;;
24373;SDS011;12498;50.880;12.096;2023-07-28T12:10:02;1.10;;;0.70;;
24373;SDS011;12498;50.880;12.096;2023-07-28T12:12:31;2.00;;;0.95;;
24373;SDS011;12498;50.880;12.096;2023-07-28T12:18:07;1.33;;;0.70;;
24373;SDS011;12498;50.880;12.096;2023-07-28T12:20:41;0.70;;;0.50;;
24373;SDS011;12498;50.880;12.096;2023-07-28T12:23:12;1.73;;;0.70;;
24373;SDS011;12498;50.880;12.096;2023-07-28T12:25:39;0.73;;;0.43;;
24373;SDS011;12498;50.880;12.096;2023-07-28T12:28:05;0.70;;;0.60;;
24373;SDS011;12498;50.880;12.096;2023-07-28T12:30:31;1.58;;;0.47;;
24373;SDS011;12498;50.880;12.096;2023-07-28T12:32:57;0.77;;;0.50;;
24373;SDS011;12498;50.880;12.096;2023-07-28T12:35:24;1.40;;;0.57;;
24373;SDS011;12498;50.880;12.096;2023-07-28T12:37:51;0.80;;;0.52;;
24373;SDS011;12498;50.880;12.096;2023-07-28T12:40:18;0.80;;;0.60;;
24373;SDS011;12498;50.880;12.096;2023-07-28T12:42:45;0.68;;;0.40;;
24373;SDS011;12498;50.880;12.096;2023-07-28T12:45:12;2.50;;;0.43;;
24373;SDS011;12498;50.880;12.096;2023-07-28T12:47:38;1.08;;;0.60;;
24373;SDS011;12498;50.880;12.096;2023-07-28T12:50:04;1.55;;;0.60;;
24373;SDS011;12498;50.880;12.096;2023-07-28T12:52:31;0.68;;;0.57;;
24373;SDS011;12498;50.880;12.096;2023-07-28T12:54:57;1.17;;;0.80;;
24373;SDS011;12498;50.880;12.096;2023-07-28T12:57:23;0.90;;;0.50;;
24373;SDS011;12498;50.880;12.096;2023-07-28T12:59:49;0.90;;;0.50;;
24373;SDS011;12498;50.880;12.096;2023-07-28T13:02:15;0.70;;;0.60;;
24373;SDS011;12498;50.880;12.096;2023-07-28T13:04:40;1.25;;;0.70;;
24373;SDS011;12498;50.880;12.096;2023-07-28T13:07:06;1.85;;;0.50;;
24373;SDS011;12498;50.880;12.096;2023-07-28T13:09:32;3.25;;;0.80;;
24373;SDS011;12498;50.880;12.096;2023-07-28T13:11:57;2.35;;;0.80;;
24373;SDS011;12498;50.880;12.096;2023-07-28T13:14:23;0.93;;;0.60;;
24373;SDS011;12498;50.880;12.096;2023-07-28T13:16:49;0.70;;;0.60;;
24373;SDS011;12498;50.880;12.096;2023-07-28T13:19:15;1.00;;;0.60;;
24373;SDS011;12498;50.880;12.096;2023-07-28T13:21:41;0.85;;;0.50;;
24373;SDS011;12498;50.880;12.096;2023-07-28T13:24:07;2.35;;;0.90;;
24373;SDS011;12498;50.880;12.096;2023-07-28T13:26:33;2.10;;;1.23;;
24373;SDS011;12498;50.880;12.096;2023-07-28T13:28:58;2.33;;;0.80;;
24373;SDS011;12498;50.880;12.096;2023-07-28T13:31:26;0.63;;;0.43;;
24373;SDS011;12498;50.880;12.096;2023-07-28T13:33:52;0.85;;;0.60;;
24373;SDS011;12498;50.880;12.096;2023-07-28T13:36:18;1.52;;;0.80;;
24373;SDS011;12498;50.880;12.096;2023-07-28T13:38:44;0.70;;;0.50;;
24373;SDS011;12498;50.880;12.096;2023-07-28T13:41:10;1.02;;;0.60;;
24373;SDS011;12498;50.880;12.096;2023-07-28T13:43:36;0.75;;;0.60;;
24373;SDS011;12498;50.880;12.096;2023-07-28T13:46:06;4.03;;;0.60;;
24373;SDS011;12498;50.880;12.096;2023-07-28T13:48:32;0.80;;;0.60;;
24373;SDS011;12498;50.880;12.096;2023-07-28T13:50:58;0.80;;;0.60;;
24373;SDS011;12498;50.880;12.096;2023-07-28T13:53:27;2.38;;;0.65;;
24373;SDS011;12498;50.880;12.096;2023-07-28T13:55:53;1.40;;;0.60;;
24373;SDS011;12498;50.880;12.096;2023-07-28T13:58:19;0.77;;;0.60;;
24373;SDS011;12498;50.880;12.096;2023-07-28T14:00:46;2.83;;;0.52;;
24373;SDS011;12498;50.880;12.096;2023-07-28T14:03:11;1.25;;;0.75;;
24373;SDS011;12498;50.880;12.096;2023-07-28T14:05:38;0.63;;;0.52;;
24373;SDS011;12498;50.880;12.096;2023-07-28T14:08:03;0.88;;;0.73;;
24373;SDS011;12498;50.880;12.096;2023-07-28T14:10:29;0.82;;;0.68;;
24373;SDS011;12498;50.880;12.096;2023-07-28T14:12:57;0.90;;;0.60;;
24373;SDS011;12498;50.880;12.096;2023-07-28T14:15:23;1.08;;;0.68;;
24373;SDS011;12498;50.880;12.096;2023-07-28T14:17:48;0.88;;;0.70;;
24373;SDS011;12498;50.880;12.096;2023-07-28T14:20:14;0.82;;;0.63;;
24373;SDS011;12498;50.880;12.096;2023-07-28T14:22:40;1.58;;;0.60;;
24373;SDS011;12498;50.880;12.096;2023-07-28T14:25:05;2.30;;;0.70;;
24373;SDS011;12498;50.880;12.096;2023-07-28T14:27:31;1.60;;;0.80;;
24373;SDS011;12498;50.880;12.096;2023-07-28T14:29:57;3.08;;;2.13;;
24373;SDS011;12498;50.880;12.096;2023-07-28T14:32:23;0.95;;;0.80;;
24373;SDS011;12498;50.880;12.096;2023-07-28T14:34:49;2.00;;;1.10;;
24373;SDS011;12498;50.880;12.096;2023-07-28T14:37:14;1.00;;;0.80;;
24373;SDS011;12498;50.880;12.096;2023-07-28T14:39:40;1.40;;;0.77;;
24373;SDS011;12498;50.880;12.096;2023-07-28T14:42:06;1.00;;;0.90;;
24373;SDS011;12498;50.880;12.096;2023-07-28T14:44:32;1.30;;;0.70;;
24373;SDS011;12498;50.880;12.096;2023-07-28T14:46:57;3.15;;;0.80;;